sensor_id;sensor_type;location;lat;lon;timestamp;P1;durP1;ratioP1;P2;durP2;ratioP2
80705;SDS011;70229;48.010;7.852;2024-03-02T00:00:20;8.70;;;4.38;;
80705;SDS011;70229;48.010;7.852;2024-03-02T00:02:47;7.15;;;3.70;;
80705;SDS011;70229;48.010;7.852;2024-03-02T00:05:15;5.55;;;3.40;;
80705;SDS011;70229;48.010;7.852;2024-03-02T00:07:42;5.60;;;3.53;;
80705;SDS011;70229;48.010;7.852;2024-03-02T00:10:10;6.30;;;3.85;;
80705;SDS011;70229;48.010;7.852;2024-03-02T00:12:41;7.63;;;3.88;;
80705;SDS011;70229;48.010;7.852;2024-03-02T00:15:53;6.72;;;3.78;;
80705;SDS011;70229;48.010;7.852;2024-03-02T00:18:02;6.35;;;3.88;;
80705;SDS011;70229;48.010;7.852;2024-03-02T00:20:29;4.72;;;2.88;;
80705;SDS011;70229;48.010;7.852;2024-03-02T00:23:04;5.70;;;3.10;;
80705;SDS011;70229;48.010;7.852;2024-03-02T00:25:52;9.43;;;4.00;;
80705;SDS011;70229;48.010;7.852;2024-03-02T00:28:22;6.72;;;3.20;;
80705;SDS011;70229;48.010;7.852;2024-03-02T00:33:27;4.95;;;2.78;;
80705;SDS011;70229;48.010;7.852;2024-03-02T00:35:56;5.35;;;2.92;;
80705;SDS011;70229;48.010;7.852;2024-03-02T00:38:22;7.55;;;3.55;;
80705;SDS011;70229;48.010;7.852;2024-03-02T00:40:49;7.82;;;3.08;;
80705;SDS011;70229;48.010;7.852;2024-03-02T00:46:03;6.00;;;3.17;;
80705;SDS011;70229;48.010;7.852;2024-03-02T00:48:29;5.22;;;3.20;;
80705;SDS011;70229;48.010;7.852;2024-03-02T00:51:01;5.40;;;3.65;;
80705;SDS011;70229;48.010;7.852;2024-03-02T00:53:28;6.97;;;4.07;;
80705;SDS011;70229;48.010;7.852;2024-03-02T00:55:56;6.70;;;4.10;;
80705;SDS011;70229;48.010;7.852;2024-03-02T00:58:21;7.57;;;4.57;;
80705;SDS011;70229;48.010;7.852;2024-03-02T01:00:47;10.35;;;4.25;;
80705;SDS011;70229;48.010;7.852;2024-03-02T01:03:12;6.55;;;4.05;;
80705;SDS011;70229;48.010;7.852;2024-03-02T01:05:44;7.50;;;4.53;;
80705;SDS011;70229;48.010;7.852;2024-03-02T01:08:10;9.70;;;3.90;;
80705;SDS011;70229;48.010;7.852;2024-03-02T01:10:36;8.68;;;3.85;;
80705;SDS011;70229;48.010;7.852;2024-03-02T01:13:01;6.72;;;3.47;;
80705;SDS011;70229;48.010;7.852;2024-03-02T01:15:27;8.23;;;4.13;;
80705;SDS011;70229;48.010;7.852;2024-03-02T01:17:53;5.82;;;3.30;;
80705;SDS011;70229;48.010;7.852;2024-03-02T01:20:19;6.35;;;4.10;;
80705;SDS011;70229;48.010;7.852;2024-03-02T01:22:45;6.13;;;4.05;;
80705;SDS011;70229;48.010;7.852;2024-03-02T01:25:10;7.03;;;3.30;;
80705;SDS011;70229;48.010;7.852;2024-03-02T01:27:36;7.30;;;4.72;;
80705;SDS011;70229;48.010;7.852;2024-03-02T01:30:01;7.55;;;3.88;;
80705;SDS011;70229;48.010;7.852;2024-03-02T01:32:27;7.43;;;5.10;;
80705;SDS011;70229;48.010;7.852;2024-03-02T01:34:52;6.75;;;4.18;;
80705;SDS011;70229;48.010;7.852;2024-03-02T01:37:18;6.90;;;4.78;;
80705;SDS011;70229;48.010;7.852;2024-03-02T01:39:43;7.88;;;5.35;;
80705;SDS011;70229;48.010;7.852;2024-03-02T01:42:09;8.60;;;4.63;;
80705;SDS011;70229;48.010;7.852;2024-03-02T01:44:35;7.10;;;4.25;;
80705;SDS011;70229;48.010;7.852;2024-03-02T01:47:01;12.18;;;4.95;;
80705;SDS011;70229;48.010;7.852;2024-03-02T01:49:27;7.82;;;5.07;;
80705;SDS011;70229;48.010;7.852;2024-03-02T01:51:52;9.45;;;4.68;;
80705;SDS011;70229;48.010;7.852;2024-03-02T01:54:18;7.30;;;4.70;;
80705;SDS011;70229;48.010;7.852;2024-03-02T01:56:44;8.02;;;4.88;;
80705;SDS011;70229;48.010;7.852;2024-03-02T01:59:10;6.85;;;4.45;;
80705;SDS011;70229;48.010;7.852;2024-03-02T02:01:36;6.15;;;4.70;;
80705;SDS011;70229;48.010;7.852;2024-03-02T02:04:01;6.72;;;4.03;;
80705;SDS011;70229;48.010;7.852;2024-03-02T02:06:27;6.78;;;3.85;;
80705;SDS011;70229;48.010;7.852;2024-03-02T02:08:53;5.30;;;3.80;;
80705;SDS011;70229;48.010;7.852;2024-03-02T02:11:18;5.93;;;3.80;;
80705;SDS011;70229;48.010;7.852;2024-03-02T02:13:44;5.60;;;3.15;;
80705;SDS011;70229;48.010;7.852;2024-03-02T02:16:09;5.85;;;3.97;;
80705;SDS011;70229;48.010;7.852;2024-03-02T02:18:35;7.20;;;3.42;;
80705;SDS011;70229;48.010;7.852;2024-03-02T02:21:02;6.93;;;3.55;;
80705;SDS011;70229;48.010;7.852;2024-03-02T02:23:28;7.53;;;4.80;;
80705;SDS011;70229;48.010;7.852;2024-03-02T02:25:53;5.93;;;3.88;;
80705;SDS011;70229;48.010;7.852;2024-03-02T02:28:19;5.97;;;4.25;;
80705;SDS011;70229;48.010;7.852;2024-03-02T02:30:45;6.03;;;3.10;;
80705;SDS011;70229;48.010;7.852;2024-03-02T02:33:11;7.57;;;4.22;;
80705;SDS011;70229;48.010;7.852;2024-03-02T02:35:36;10.35;;;3.72;;
80705;SDS011;70229;48.010;7.852;2024-03-02T02:38:02;7.13;;;4.05;;
80705;SDS011;70229;48.010;7.852;2024-03-02T02:40:28;6.13;;;4.22;;
80705;SDS011;70229;48.010;7.852;2024-03-02T02:42:57;6.68;;;4.10;;
80705;SDS011;70229;48.010;7.852;2024-03-02T02:45:24;6.55;;;4.28;;
80705;SDS011;70229;48.010;7.852;2024-03-02T02:47:50;7.63;;;3.65;;
80705;SDS011;70229;48.010;7.852;2024-03-02T02:50:15;8.80;;;4.53;;
80705;SDS011;70229;48.010;7.852;2024-03-02T02:52:41;7.97;;;3.83;;
80705;SDS011;70229;48.010;7.852;2024-03-02T02:55:08;5.10;;;2.72;;
80705;SDS011;70229;48.010;7.852;2024-03-02T02:57:35;9.55;;;3.38;;
80705;SDS011;70229;48.010;7.852;2024-03-02T03:00:06;6.75;;;2.90;;
80705;SDS011;70229;48.010;7.852;2024-03-02T03:02:40;5.10;;;2.50;;
80705;SDS011;70229;48.010;7.852;2024-03-02T03:05:07;3.65;;;2.30;;
80705;SDS011;70229;48.010;7.852;2024-03-02T03:07:36;5.38;;;3.25;;
80705;SDS011;70229;48.010;7.852;2024-03-02T03:10:03;6.00;;;3.28;;
80705;SDS011;70229;48.010;7.852;2024-03-02T03:12:29;5.15;;;3.03;;
80705;SDS011;70229;48.010;7.852;2024-03-02T03:14:56;4.53;;;2.25;;
80705;SDS011;70229;48.010;7.852;2024-03-02T03:17:22;4.78;;;2.40;;
80705;SDS011;70229;48.010;7.852;2024-03-02T03:19:48;4.68;;;2.30;;
80705;SDS011;70229;48.010;7.852;2024-03-02T03:22:14;4.65;;;1.98;;
80705;SDS011;70229;48.010;7.852;2024-03-02T03:24:39;4.70;;;2.10;;
80705;SDS011;70229;48.010;7.852;2024-03-02T03:27:05;4.68;;;2.22;;
80705;SDS011;70229;48.010;7.852;2024-03-02T03:29:31;5.32;;;1.98;;
80705;SDS011;70229;48.010;7.852;2024-03-02T03:31:56;5.15;;;1.45;;
80705;SDS011;70229;48.010;7.852;2024-03-02T03:34:22;3.67;;;1.83;;
80705;SDS011;70229;48.010;7.852;2024-03-02T03:36:47;4.88;;;2.25;;
80705;SDS011;70229;48.010;7.852;2024-03-02T03:39:13;6.63;;;1.88;;
80705;SDS011;70229;48.010;7.852;2024-03-02T03:41:40;4.78;;;1.83;;
80705;SDS011;70229;48.010;7.852;2024-03-02T03:44:05;3.72;;;2.22;;
80705;SDS011;70229;48.010;7.852;2024-03-02T03:46:31;3.70;;;1.75;;
80705;SDS011;70229;48.010;7.852;2024-03-02T03:48:56;3.53;;;1.98;;
80705;SDS011;70229;48.010;7.852;2024-03-02T03:51:22;3.17;;;1.30;;
80705;SDS011;70229;48.010;7.852;2024-03-02T03:53:48;3.75;;;1.60;;
80705;SDS011;70229;48.010;7.852;2024-03-02T03:56:13;4.80;;;1.30;;
80705;SDS011;70229;48.010;7.852;2024-03-02T03:58:39;3.85;;;1.58;;
80705;SDS011;70229;48.010;7.852;2024-03-02T04:01:05;3.10;;;1.73;;
80705;SDS011;70229;48.010;7.852;2024-03-02T04:03:30;3.38;;;1.45;;
80705;SDS011;70229;48.010;7.852;2024-03-02T04:05:56;2.75;;;1.20;;
80705;SDS011;70229;48.010;7.852;2024-03-02T04:08:21;2.00;;;1.10;;
80705;SDS011;70229;48.010;7.852;2024-03-02T04:10:47;2.90;;;1.40;;
80705;SDS011;70229;48.010;7.852;2024-03-02T04:13:13;3.80;;;1.83;;
80705;SDS011;70229;48.010;7.852;2024-03-02T04:15:39;3.85;;;1.30;;
80705;SDS011;70229;48.010;7.852;2024-03-02T04:18:05;3.03;;;1.20;;
80705;SDS011;70229;48.010;7.852;2024-03-02T04:20:31;2.35;;;0.98;;
80705;SDS011;70229;48.010;7.852;2024-03-02T04:22:57;2.38;;;0.98;;
80705;SDS011;70229;48.010;7.852;2024-03-02T04:25:22;1.65;;;0.93;;
80705;SDS011;70229;48.010;7.852;2024-03-02T04:27:48;5.80;;;1.17;;
80705;SDS011;70229;48.010;7.852;2024-03-02T04:30:13;2.60;;;1.13;;
80705;SDS011;70229;48.010;7.852;2024-03-02T04:32:39;4.65;;;1.15;;
80705;SDS011;70229;48.010;7.852;2024-03-02T04:35:05;2.47;;;1.02;;
80705;SDS011;70229;48.010;7.852;2024-03-02T04:37:34;3.88;;;1.60;;
80705;SDS011;70229;48.010;7.852;2024-03-02T04:39:59;3.25;;;1.02;;
80705;SDS011;70229;48.010;7.852;2024-03-02T04:42:25;2.80;;;1.02;;
80705;SDS011;70229;48.010;7.852;2024-03-02T04:44:50;5.93;;;1.00;;
80705;SDS011;70229;48.010;7.852;2024-03-02T04:47:16;4.28;;;1.30;;
80705;SDS011;70229;48.010;7.852;2024-03-02T04:49:42;3.67;;;1.50;;
80705;SDS011;70229;48.010;7.852;2024-03-02T04:52:08;4.10;;;1.83;;
80705;SDS011;70229;48.010;7.852;2024-03-02T04:54:34;3.80;;;2.03;;
80705;SDS011;70229;48.010;7.852;2024-03-02T04:59:45;4.75;;;2.30;;
80705;SDS011;70229;48.010;7.852;2024-03-02T05:02:10;3.80;;;2.15;;
80705;SDS011;70229;48.010;7.852;2024-03-02T05:04:36;5.13;;;2.38;;
80705;SDS011;70229;48.010;7.852;2024-03-02T05:07:01;4.13;;;2.67;;
80705;SDS011;70229;48.010;7.852;2024-03-02T05:09:27;3.90;;;2.00;;
80705;SDS011;70229;48.010;7.852;2024-03-02T05:11:53;4.00;;;2.22;;
80705;SDS011;70229;48.010;7.852;2024-03-02T05:14:35;4.43;;;2.63;;
80705;SDS011;70229;48.010;7.852;2024-03-02T05:17:02;6.00;;;2.67;;
80705;SDS011;70229;48.010;7.852;2024-03-02T05:19:27;4.45;;;2.80;;
80705;SDS011;70229;48.010;7.852;2024-03-02T05:21:53;4.03;;;2.17;;
80705;SDS011;70229;48.010;7.852;2024-03-02T05:24:18;6.07;;;2.08;;
80705;SDS011;70229;48.010;7.852;2024-03-02T05:26:44;3.50;;;1.75;;
80705;SDS011;70229;48.010;7.852;2024-03-02T05:29:09;5.95;;;2.47;;
80705;SDS011;70229;48.010;7.852;2024-03-02T05:31:35;2.75;;;1.35;;
80705;SDS011;70229;48.010;7.852;2024-03-02T05:34:01;4.10;;;1.30;;
80705;SDS011;70229;48.010;7.852;2024-03-02T05:36:26;3.35;;;1.48;;
80705;SDS011;70229;48.010;7.852;2024-03-02T05:38:52;4.40;;;1.77;;
80705;SDS011;70229;48.010;7.852;2024-03-02T05:41:18;2.70;;;1.23;;
80705;SDS011;70229;48.010;7.852;2024-03-02T05:43:43;3.33;;;1.30;;
80705;SDS011;70229;48.010;7.852;2024-03-02T05:46:09;1.67;;;0.73;;
80705;SDS011;70229;48.010;7.852;2024-03-02T05:48:34;3.13;;;0.90;;
80705;SDS011;70229;48.010;7.852;2024-03-02T05:51:00;3.80;;;1.27;;
80705;SDS011;70229;48.010;7.852;2024-03-02T05:53:25;1.52;;;0.70;;
80705;SDS011;70229;48.010;7.852;2024-03-02T05:55:51;3.35;;;1.00;;
80705;SDS011;70229;48.010;7.852;2024-03-02T05:58:20;4.43;;;1.00;;
80705;SDS011;70229;48.010;7.852;2024-03-02T06:00:45;2.20;;;0.75;;
80705;SDS011;70229;48.010;7.852;2024-03-02T06:03:11;2.63;;;1.13;;
80705;SDS011;70229;48.010;7.852;2024-03-02T06:05:37;0.63;;;0.40;;
80705;SDS011;70229;48.010;7.852;2024-03-02T06:08:02;1.77;;;0.80;;
80705;SDS011;70229;48.010;7.852;2024-03-02T06:10:28;1.73;;;0.80;;
80705;SDS011;70229;48.010;7.852;2024-03-02T06:12:54;6.07;;;0.85;;
80705;SDS011;70229;48.010;7.852;2024-03-02T06:15:19;1.58;;;0.60;;
80705;SDS011;70229;48.010;7.852;2024-03-02T06:17:45;1.83;;;0.88;;
80705;SDS011;70229;48.010;7.852;2024-03-02T06:20:11;1.42;;;0.65;;
80705;SDS011;70229;48.010;7.852;2024-03-02T06:22:36;3.72;;;1.17;;
80705;SDS011;70229;48.010;7.852;2024-03-02T06:25:02;1.38;;;0.73;;
80705;SDS011;70229;48.010;7.852;2024-03-02T06:27:27;2.50;;;1.00;;
80705;SDS011;70229;48.010;7.852;2024-03-02T06:29:53;1.48;;;0.68;;
80705;SDS011;70229;48.010;7.852;2024-03-02T06:32:19;2.25;;;0.90;;
80705;SDS011;70229;48.010;7.852;2024-03-02T06:34:45;2.35;;;0.65;;
80705;SDS011;70229;48.010;7.852;2024-03-02T06:37:11;1.08;;;0.60;;
80705;SDS011;70229;48.010;7.852;2024-03-02T06:39:36;2.33;;;0.80;;
80705;SDS011;70229;48.010;7.852;2024-03-02T06:42:02;1.85;;;0.80;;
80705;SDS011;70229;48.010;7.852;2024-03-02T06:44:28;2.00;;;0.77;;
80705;SDS011;70229;48.010;7.852;2024-03-02T06:46:53;0.75;;;0.35;;
80705;SDS011;70229;48.010;7.852;2024-03-02T06:49:19;2.63;;;0.98;;
80705;SDS011;70229;48.010;7.852;2024-03-02T06:51:44;1.85;;;0.65;;
80705;SDS011;70229;48.010;7.852;2024-03-02T06:54:10;1.75;;;0.73;;
80705;SDS011;70229;48.010;7.852;2024-03-02T06:56:35;2.00;;;0.65;;
80705;SDS011;70229;48.010;7.852;2024-03-02T06:59:02;3.22;;;1.33;;
80705;SDS011;70229;48.010;7.852;2024-03-02T07:01:28;1.98;;;0.80;;
80705;SDS011;70229;48.010;7.852;2024-03-02T07:03:53;1.88;;;0.73;;
80705;SDS011;70229;48.010;7.852;2024-03-02T07:06:19;3.65;;;1.25;;
80705;SDS011;70229;48.010;7.852;2024-03-02T07:08:44;3.45;;;0.90;;
80705;SDS011;70229;48.010;7.852;2024-03-02T07:11:10;1.67;;;0.77;;
80705;SDS011;70229;48.010;7.852;2024-03-02T07:13:36;3.03;;;0.80;;
80705;SDS011;70229;48.010;7.852;2024-03-02T07:16:01;5.18;;;0.77;;
80705;SDS011;70229;48.010;7.852;2024-03-02T07:18:36;2.25;;;0.85;;
80705;SDS011;70229;48.010;7.852;2024-03-02T07:21:10;1.55;;;0.65;;
80705;SDS011;70229;48.010;7.852;2024-03-02T07:23:35;1.92;;;0.95;;
80705;SDS011;70229;48.010;7.852;2024-03-02T07:26:01;2.15;;;0.63;;
80705;SDS011;70229;48.010;7.852;2024-03-02T07:28:28;2.65;;;1.08;;
80705;SDS011;70229;48.010;7.852;2024-03-02T07:30:57;3.53;;;1.15;;
80705;SDS011;70229;48.010;7.852;2024-03-02T07:33:24;2.10;;;0.65;;
80705;SDS011;70229;48.010;7.852;2024-03-02T07:35:49;2.47;;;1.35;;
80705;SDS011;70229;48.010;7.852;2024-03-02T07:38:15;1.73;;;0.70;;
80705;SDS011;70229;48.010;7.852;2024-03-02T07:40:40;1.95;;;0.60;;
80705;SDS011;70229;48.010;7.852;2024-03-02T07:43:07;1.80;;;0.60;;
80705;SDS011;70229;48.010;7.852;2024-03-02T07:45:33;2.30;;;0.68;;
80705;SDS011;70229;48.010;7.852;2024-03-02T07:48:01;1.70;;;0.75;;
80705;SDS011;70229;48.010;7.852;2024-03-02T07:50:28;2.13;;;0.68;;
80705;SDS011;70229;48.010;7.852;2024-03-02T07:52:55;2.00;;;0.70;;
80705;SDS011;70229;48.010;7.852;2024-03-02T07:55:21;1.65;;;0.60;;
80705;SDS011;70229;48.010;7.852;2024-03-02T07:57:48;1.85;;;0.52;;
80705;SDS011;70229;48.010;7.852;2024-03-02T08:00:15;1.92;;;1.02;;
80705;SDS011;70229;48.010;7.852;2024-03-02T08:02:40;0.88;;;0.47;;
80705;SDS011;70229;48.010;7.852;2024-03-02T08:05:07;2.28;;;0.65;;
80705;SDS011;70229;48.010;7.852;2024-03-02T08:07:33;1.38;;;0.73;;
80705;SDS011;70229;48.010;7.852;2024-03-02T08:09:59;1.58;;;0.40;;
80705;SDS011;70229;48.010;7.852;2024-03-02T08:12:25;1.75;;;0.98;;
80705;SDS011;70229;48.010;7.852;2024-03-02T08:14:50;2.00;;;0.88;;
80705;SDS011;70229;48.010;7.852;2024-03-02T08:17:16;2.17;;;0.52;;
80705;SDS011;70229;48.010;7.852;2024-03-02T08:19:42;1.10;;;0.40;;
80705;SDS011;70229;48.010;7.852;2024-03-02T08:22:07;1.40;;;0.77;;
80705;SDS011;70229;48.010;7.852;2024-03-02T08:24:33;1.73;;;0.80;;
80705;SDS011;70229;48.010;7.852;2024-03-02T08:26:59;2.17;;;0.63;;
80705;SDS011;70229;48.010;7.852;2024-03-02T08:29:25;0.95;;;0.40;;
80705;SDS011;70229;48.010;7.852;2024-03-02T08:31:51;1.50;;;0.70;;
80705;SDS011;70229;48.010;7.852;2024-03-02T08:34:16;1.08;;;0.50;;
80705;SDS011;70229;48.010;7.852;2024-03-02T08:36:42;0.52;;;0.20;;
80705;SDS011;70229;48.010;7.852;2024-03-02T08:39:08;1.50;;;0.55;;
80705;SDS011;70229;48.010;7.852;2024-03-02T08:41:40;0.63;;;0.30;;
80705;SDS011;70229;48.010;7.852;2024-03-02T08:44:09;1.33;;;0.50;;
80705;SDS011;70229;48.010;7.852;2024-03-02T08:46:35;1.45;;;0.65;;
80705;SDS011;70229;48.010;7.852;2024-03-02T08:49:01;1.60;;;0.50;;
80705;SDS011;70229;48.010;7.852;2024-03-02T08:51:27;2.17;;;0.70;;
80705;SDS011;70229;48.010;7.852;2024-03-02T08:53:52;3.92;;;0.82;;
80705;SDS011;70229;48.010;7.852;2024-03-02T08:56:18;2.70;;;0.55;;
80705;SDS011;70229;48.010;7.852;2024-03-02T08:58:45;1.38;;;0.80;;
80705;SDS011;70229;48.010;7.852;2024-03-02T09:01:11;1.77;;;0.70;;
80705;SDS011;70229;48.010;7.852;2024-03-02T09:03:36;2.50;;;0.85;;
80705;SDS011;70229;48.010;7.852;2024-03-02T09:06:02;2.35;;;1.00;;
80705;SDS011;70229;48.010;7.852;2024-03-02T09:08:28;3.20;;;0.77;;
80705;SDS011;70229;48.010;7.852;2024-03-02T09:10:54;3.00;;;0.75;;
80705;SDS011;70229;48.010;7.852;2024-03-02T09:13:21;3.17;;;1.00;;
80705;SDS011;70229;48.010;7.852;2024-03-02T09:15:47;1.85;;;0.80;;
80705;SDS011;70229;48.010;7.852;2024-03-02T09:18:13;1.80;;;0.75;;
80705;SDS011;70229;48.010;7.852;2024-03-02T09:20:38;1.88;;;0.77;;
80705;SDS011;70229;48.010;7.852;2024-03-02T09:23:04;1.63;;;0.57;;
80705;SDS011;70229;48.010;7.852;2024-03-02T09:25:30;1.55;;;0.70;;
80705;SDS011;70229;48.010;7.852;2024-03-02T09:27:55;3.17;;;0.68;;
80705;SDS011;70229;48.010;7.852;2024-03-02T09:30:21;2.08;;;0.68;;
80705;SDS011;70229;48.010;7.852;2024-03-02T09:32:47;1.92;;;1.05;;
80705;SDS011;70229;48.010;7.852;2024-03-02T09:35:12;1.40;;;0.80;;
80705;SDS011;70229;48.010;7.852;2024-03-02T09:37:38;2.70;;;0.30;;
80705;SDS011;70229;48.010;7.852;2024-03-02T09:40:04;0.85;;;0.40;;
80705;SDS011;70229;48.010;7.852;2024-03-02T09:42:31;1.60;;;0.77;;
80705;SDS011;70229;48.010;7.852;2024-03-02T09:44:57;0.85;;;0.50;;
80705;SDS011;70229;48.010;7.852;2024-03-02T09:47:23;1.50;;;0.80;;
80705;SDS011;70229;48.010;7.852;2024-03-02T09:49:48;1.35;;;0.40;;
80705;SDS011;70229;48.010;7.852;2024-03-02T09:52:14;1.20;;;0.60;;
80705;SDS011;70229;48.010;7.852;2024-03-02T09:54:41;1.92;;;1.00;;
80705;SDS011;70229;48.010;7.852;2024-03-02T09:57:06;2.15;;;0.70;;
80705;SDS011;70229;48.010;7.852;2024-03-02T09:59:32;0.75;;;0.50;;
80705;SDS011;70229;48.010;7.852;2024-03-02T10:01:58;1.10;;;0.50;;
80705;SDS011;70229;48.010;7.852;2024-03-02T10:04:25;0.77;;;0.50;;
80705;SDS011;70229;48.010;7.852;2024-03-02T10:06:51;1.25;;;0.70;;
80705;SDS011;70229;48.010;7.852;2024-03-02T10:09:34;1.25;;;0.68;;
80705;SDS011;70229;48.010;7.852;2024-03-02T10:12:06;1.33;;;0.60;;
80705;SDS011;70229;48.010;7.852;2024-03-02T10:14:32;1.33;;;0.65;;
80705;SDS011;70229;48.010;7.852;2024-03-02T10:17:01;0.65;;;0.40;;
80705;SDS011;70229;48.010;7.852;2024-03-02T10:19:28;1.75;;;0.60;;
80705;SDS011;70229;48.010;7.852;2024-03-02T10:22:02;1.13;;;0.70;;
80705;SDS011;70229;48.010;7.852;2024-03-02T10:24:35;1.55;;;0.70;;
80705;SDS011;70229;48.010;7.852;2024-03-02T10:27:06;3.30;;;1.00;;
80705;SDS011;70229;48.010;7.852;2024-03-02T10:29:45;2.30;;;1.20;;
80705;SDS011;70229;48.010;7.852;2024-03-02T10:32:12;1.20;;;0.60;;
80705;SDS011;70229;48.010;7.852;2024-03-02T10:34:39;2.45;;;0.93;;
80705;SDS011;70229;48.010;7.852;2024-03-02T10:37:06;2.28;;;0.82;;
80705;SDS011;70229;48.010;7.852;2024-03-02T10:39:32;3.17;;;1.08;;
80705;SDS011;70229;48.010;7.852;2024-03-02T10:42:00;3.55;;;1.02;;
80705;SDS011;70229;48.010;7.852;2024-03-02T10:44:28;3.40;;;1.13;;
80705;SDS011;70229;48.010;7.852;2024-03-02T10:46:55;2.35;;;0.75;;
80705;SDS011;70229;48.010;7.852;2024-03-02T10:49:20;1.42;;;0.50;;
80705;SDS011;70229;48.010;7.852;2024-03-02T10:51:49;1.50;;;0.70;;
80705;SDS011;70229;48.010;7.852;2024-03-02T10:54:14;1.60;;;0.52;;
80705;SDS011;70229;48.010;7.852;2024-03-02T10:56:41;1.80;;;0.68;;
80705;SDS011;70229;48.010;7.852;2024-03-02T11:02:01;1.90;;;0.90;;
80705;SDS011;70229;48.010;7.852;2024-03-02T11:04:28;2.53;;;0.98;;
80705;SDS011;70229;48.010;7.852;2024-03-02T11:06:59;1.75;;;0.50;;
80705;SDS011;70229;48.010;7.852;2024-03-02T11:09:35;4.05;;;0.80;;
80705;SDS011;70229;48.010;7.852;2024-03-02T11:12:14;1.77;;;0.85;;
80705;SDS011;70229;48.010;7.852;2024-03-02T11:14:44;1.63;;;0.60;;
80705;SDS011;70229;48.010;7.852;2024-03-02T11:17:10;2.20;;;0.70;;
80705;SDS011;70229;48.010;7.852;2024-03-02T11:19:38;1.65;;;0.50;;
80705;SDS011;70229;48.010;7.852;2024-03-02T11:22:05;5.10;;;1.98;;
80705;SDS011;70229;48.010;7.852;2024-03-02T11:24:32;1.88;;;0.75;;
80705;SDS011;70229;48.010;7.852;2024-03-02T11:26:58;0.82;;;0.40;;
80705;SDS011;70229;48.010;7.852;2024-03-02T11:32:04;1.90;;;0.85;;
80705;SDS011;70229;48.010;7.852;2024-03-02T11:34:31;1.88;;;0.50;;
80705;SDS011;70229;48.010;7.852;2024-03-02T11:37:00;2.40;;;1.20;;
80705;SDS011;70229;48.010;7.852;2024-03-02T11:39:27;1.80;;;0.70;;
80705;SDS011;70229;48.010;7.852;2024-03-02T11:41:53;5.80;;;0.90;;
80705;SDS011;70229;48.010;7.852;2024-03-02T11:44:22;2.45;;;0.60;;
80705;SDS011;70229;48.010;7.852;2024-03-02T11:46:59;2.30;;;0.75;;
80705;SDS011;70229;48.010;7.852;2024-03-02T11:49:36;0.90;;;0.50;;
80705;SDS011;70229;48.010;7.852;2024-03-02T11:52:03;4.03;;;0.77;;
80705;SDS011;70229;48.010;7.852;2024-03-02T11:54:32;1.35;;;0.73;;
80705;SDS011;70229;48.010;7.852;2024-03-02T11:57:00;2.85;;;0.80;;
80705;SDS011;70229;48.010;7.852;2024-03-02T11:59:28;1.35;;;0.70;;
80705;SDS011;70229;48.010;7.852;2024-03-02T12:01:54;3.53;;;0.80;;
80705;SDS011;70229;48.010;7.852;2024-03-02T12:04:21;1.48;;;0.60;;
80705;SDS011;70229;48.010;7.852;2024-03-02T12:06:48;1.38;;;0.80;;
80705;SDS011;70229;48.010;7.852;2024-03-02T12:09:20;3.55;;;0.98;;
80705;SDS011;70229;48.010;7.852;2024-03-02T12:11:46;1.17;;;0.60;;
80705;SDS011;70229;48.010;7.852;2024-03-02T12:14:12;2.10;;;0.60;;
80705;SDS011;70229;48.010;7.852;2024-03-02T12:16:38;1.48;;;0.65;;
80705;SDS011;70229;48.010;7.852;2024-03-02T12:19:05;1.65;;;0.73;;
80705;SDS011;70229;48.010;7.852;2024-03-02T12:21:31;3.70;;;1.08;;
80705;SDS011;70229;48.010;7.852;2024-03-02T12:23:56;1.38;;;0.55;;
80705;SDS011;70229;48.010;7.852;2024-03-02T12:26:22;2.58;;;0.60;;
80705;SDS011;70229;48.010;7.852;2024-03-02T12:28:48;1.38;;;0.60;;
80705;SDS011;70229;48.010;7.852;2024-03-02T12:31:14;2.35;;;0.60;;
80705;SDS011;70229;48.010;7.852;2024-03-02T12:33:40;4.35;;;0.50;;
80705;SDS011;70229;48.010;7.852;2024-03-02T12:36:09;5.43;;;1.50;;
80705;SDS011;70229;48.010;7.852;2024-03-02T12:38:37;1.88;;;0.60;;
80705;SDS011;70229;48.010;7.852;2024-03-02T12:41:02;1.95;;;0.82;;
80705;SDS011;70229;48.010;7.852;2024-03-02T12:43:30;2.10;;;0.60;;
80705;SDS011;70229;48.010;7.852;2024-03-02T12:45:59;0.98;;;0.43;;
80705;SDS011;70229;48.010;7.852;2024-03-02T12:48:25;2.08;;;0.82;;
80705;SDS011;70229;48.010;7.852;2024-03-02T12:50:51;1.40;;;0.55;;
80705;SDS011;70229;48.010;7.852;2024-03-02T12:53:16;2.08;;;0.70;;
80705;SDS011;70229;48.010;7.852;2024-03-02T12:55:42;0.57;;;0.40;;
80705;SDS011;70229;48.010;7.852;2024-03-02T12:58:15;1.17;;;0.55;;
80705;SDS011;70229;48.010;7.852;2024-03-02T13:00:45;2.10;;;0.88;;
80705;SDS011;70229;48.010;7.852;2024-03-02T13:03:11;1.42;;;0.70;;
80705;SDS011;70229;48.010;7.852;2024-03-02T13:05:37;1.63;;;0.88;;
80705;SDS011;70229;48.010;7.852;2024-03-02T13:08:04;1.08;;;0.60;;
80705;SDS011;70229;48.010;7.852;2024-03-02T13:10:32;0.90;;;0.55;;
80705;SDS011;70229;48.010;7.852;2024-03-02T13:12:58;1.55;;;0.70;;
80705;SDS011;70229;48.010;7.852;2024-03-02T13:15:23;2.28;;;0.52;;
80705;SDS011;70229;48.010;7.852;2024-03-02T13:17:52;1.88;;;0.80;;
80705;SDS011;70229;48.010;7.852;2024-03-02T13:20:17;2.65;;;0.60;;
80705;SDS011;70229;48.010;7.852;2024-03-02T13:22:44;1.15;;;0.52;;
80705;SDS011;70229;48.010;7.852;2024-03-02T13:25:09;0.88;;;0.60;;
80705;SDS011;70229;48.010;7.852;2024-03-02T13:27:36;0.95;;;0.50;;
80705;SDS011;70229;48.010;7.852;2024-03-02T13:30:02;1.10;;;0.47;;
80705;SDS011;70229;48.010;7.852;2024-03-02T13:32:30;0.93;;;0.40;;
80705;SDS011;70229;48.010;7.852;2024-03-02T13:34:56;0.80;;;0.38;;
80705;SDS011;70229;48.010;7.852;2024-03-02T13:37:22;1.73;;;0.70;;
80705;SDS011;70229;48.010;7.852;2024-03-02T13:39:48;1.30;;;0.60;;
80705;SDS011;70229;48.010;7.852;2024-03-02T13:42:13;1.23;;;0.85;;
80705;SDS011;70229;48.010;7.852;2024-03-02T13:44:40;1.60;;;0.70;;
80705;SDS011;70229;48.010;7.852;2024-03-02T13:47:10;1.00;;;0.50;;
80705;SDS011;70229;48.010;7.852;2024-03-02T13:49:36;1.15;;;0.70;;
80705;SDS011;70229;48.010;7.852;2024-03-02T13:52:03;2.08;;;0.60;;
80705;SDS011;70229;48.010;7.852;2024-03-02T13:54:36;2.45;;;0.75;;
80705;SDS011;70229;48.010;7.852;2024-03-02T13:57:03;1.50;;;0.68;;
80705;SDS011;70229;48.010;7.852;2024-03-02T13:59:28;1.92;;;1.02;;
80705;SDS011;70229;48.010;7.852;2024-03-02T14:01:54;1.83;;;0.68;;
80705;SDS011;70229;48.010;7.852;2024-03-02T14:04:20;2.17;;;0.90;;
80705;SDS011;70229;48.010;7.852;2024-03-02T14:06:45;1.63;;;0.80;;
80705;SDS011;70229;48.010;7.852;2024-03-02T14:09:11;1.20;;;0.50;;
80705;SDS011;70229;48.010;7.852;2024-03-02T14:11:37;4.90;;;1.85;;
80705;SDS011;70229;48.010;7.852;2024-03-02T14:14:02;2.83;;;1.20;;
80705;SDS011;70229;48.010;7.852;2024-03-02T14:16:28;2.47;;;0.82;;
80705;SDS011;70229;48.010;7.852;2024-03-02T14:18:53;2.55;;;0.73;;
80705;SDS011;70229;48.010;7.852;2024-03-02T14:21:19;2.92;;;1.20;;
80705;SDS011;70229;48.010;7.852;2024-03-02T14:23:44;1.55;;;0.60;;
80705;SDS011;70229;48.010;7.852;2024-03-02T14:26:10;2.40;;;1.30;;
80705;SDS011;70229;48.010;7.852;2024-03-02T14:28:35;2.15;;;0.70;;
80705;SDS011;70229;48.010;7.852;2024-03-02T14:31:01;1.65;;;0.77;;
80705;SDS011;70229;48.010;7.852;2024-03-02T14:33:27;1.73;;;0.60;;
80705;SDS011;70229;48.010;7.852;2024-03-02T14:35:53;1.58;;;0.77;;
80705;SDS011;70229;48.010;7.852;2024-03-02T14:38:19;1.77;;;0.70;;
80705;SDS011;70229;48.010;7.852;2024-03-02T14:40:45;1.45;;;0.80;;
80705;SDS011;70229;48.010;7.852;2024-03-02T14:43:10;2.00;;;0.95;;
80705;SDS011;70229;48.010;7.852;2024-03-02T14:45:36;2.03;;;0.82;;
80705;SDS011;70229;48.010;7.852;2024-03-02T14:48:02;2.05;;;0.90;;
80705;SDS011;70229;48.010;7.852;2024-03-02T14:50:28;1.63;;;0.60;;
80705;SDS011;70229;48.010;7.852;2024-03-02T14:52:54;2.05;;;0.80;;
80705;SDS011;70229;48.010;7.852;2024-03-02T14:55:22;1.92;;;0.90;;
80705;SDS011;70229;48.010;7.852;2024-03-02T14:57:48;2.80;;;1.20;;